createdAt,value
2022-08-29T00:00:50.628Z,87.40
2022-08-29T00:03:17.734Z,87.50
2022-08-29T00:05:50.050Z,87.50
2022-08-29T00:08:17.639Z,87.60
2022-08-29T00:10:44.682Z,87.70
2022-08-29T00:13:14.239Z,87.80
2022-08-29T00:15:44.900Z,87.80
2022-08-29T00:18:13.674Z,87.70
2022-08-29T00:20:40.951Z,87.80
2022-08-29T00:23:08.673Z,87.80
2022-08-29T00:25:36.009Z,87.90
2022-08-29T00:28:03.611Z,88.00
2022-08-29T00:30:31.557Z,88.00
2022-08-29T00:32:58.601Z,88.10
2022-08-29T00:35:29.051Z,88.00
2022-08-29T00:37:56.317Z,88.00
2022-08-29T00:40:37.482Z,87.90
2022-08-29T00:43:05.000Z,88.00
2022-08-29T00:45:32.959Z,87.90
2022-08-29T00:48:11.940Z,87.80
2022-08-29T00:50:48.492Z,87.80
2022-08-29T00:53:17.633Z,87.70
2022-08-29T00:55:50.626Z,87.60
2022-08-29T00:58:27.907Z,87.50
2022-08-29T01:00:55.215Z,87.50
2022-08-29T01:03:22.144Z,87.60
2022-08-29T01:05:49.538Z,87.50
2022-08-29T01:08:16.855Z,87.50
2022-08-29T01:11:02.547Z,87.50
2022-08-29T01:13:35.032Z,87.50
2022-08-29T01:16:03.045Z,87.40
2022-08-29T01:18:32.598Z,87.50
2022-08-29T01:21:18.826Z,87.40
2022-08-29T01:24:10.379Z,87.40
2022-08-29T01:26:37.773Z,87.70
2022-08-29T01:29:05.146Z,87.80
2022-08-29T01:31:57.261Z,87.60
2022-08-29T01:34:26.721Z,87.60
2022-08-29T01:36:57.757Z,87.60
2022-08-29T01:39:27.681Z,87.60
2022-08-29T01:41:57.065Z,87.60
2022-08-29T01:44:28.180Z,87.70
2022-08-29T01:47:02.657Z,87.80
2022-08-29T01:49:34.654Z,87.90
2022-08-29T01:52:06.761Z,88.00
2022-08-29T01:54:35.400Z,88.00
2022-08-29T01:57:02.747Z,88.10
2022-08-29T01:59:31.284Z,88.10
2022-08-29T02:02:04.358Z,88.30
2022-08-29T02:04:31.689Z,88.30
2022-08-29T02:06:58.767Z,88.50
2022-08-29T02:09:27.149Z,88.50
2022-08-29T02:11:55.031Z,88.60
2022-08-29T02:14:23.570Z,88.60
2022-08-29T02:16:51.089Z,88.60
2022-08-29T02:19:18.570Z,88.60
2022-08-29T02:21:45.795Z,88.70
2022-08-29T02:24:25.115Z,88.80
2022-08-29T02:26:54.494Z,88.80
2022-08-29T02:29:21.535Z,88.80
2022-08-29T02:31:48.803Z,88.80
2022-08-29T02:34:16.823Z,88.90
2022-08-29T02:36:44.615Z,88.80
2022-08-29T02:39:12.327Z,88.80
2022-08-29T02:41:39.510Z,88.90
2022-08-29T02:44:09.183Z,88.90
2022-08-29T02:46:37.639Z,88.90
2022-08-29T02:49:04.696Z,88.90
2022-08-29T02:51:32.934Z,88.90
2022-08-29T02:54:00.982Z,88.90
2022-08-29T02:56:29.256Z,89.00
2022-08-29T02:58:57.258Z,88.90
2022-08-29T03:01:25.111Z,89.00
2022-08-29T03:03:52.626Z,88.90
2022-08-29T03:06:20.463Z,89.00
2022-08-29T03:08:47.386Z,89.00
2022-08-29T03:11:14.681Z,89.00
2022-08-29T03:13:44.101Z,89.10
2022-08-29T03:16:12.385Z,89.10
2022-08-29T03:18:39.652Z,89.20
2022-08-29T03:21:19.768Z,89.30
2022-08-29T03:23:48.159Z,89.40
2022-08-29T03:26:15.276Z,89.30
2022-08-29T03:28:42.267Z,89.40
2022-08-29T03:31:09.318Z,89.30
2022-08-29T03:33:36.444Z,89.30
2022-08-29T03:36:04.256Z,89.30
2022-08-29T03:38:37.989Z,89.30
2022-08-29T03:41:06.790Z,89.30
2022-08-29T03:43:33.685Z,89.40
2022-08-29T03:46:00.504Z,89.40
2022-08-29T03:48:27.336Z,89.50
2022-08-29T03:50:56.431Z,89.70
2022-08-29T03:53:23.530Z,89.80
2022-08-29T03:55:50.816Z,89.90
2022-08-29T03:58:18.041Z,90.00
2022-08-29T04:00:46.853Z,90.10
2022-08-29T04:03:14.069Z,90.10
2022-08-29T04:05:41.108Z,90.10
2022-08-29T04:08:08.595Z,90.20
2022-08-29T04:10:38.757Z,90.20
2022-08-29T04:13:08.351Z,90.30
2022-08-29T04:15:36.187Z,90.30
2022-08-29T04:18:07.089Z,90.40
2022-08-29T04:20:37.835Z,90.40
2022-08-29T04:23:06.014Z,90.50
2022-08-29T04:25:37.573Z,90.50
2022-08-29T04:28:06.691Z,90.50
2022-08-29T04:30:34.617Z,90.50
2022-08-29T04:33:01.565Z,90.50
2022-08-29T04:35:28.838Z,90.50
2022-08-29T04:37:56.247Z,90.50
2022-08-29T04:40:23.551Z,90.50
2022-08-29T04:42:51.149Z,90.50
2022-08-29T04:45:20.450Z,90.50
2022-08-29T04:47:47.491Z,90.40
2022-08-29T04:50:18.227Z,90.40
2022-08-29T04:52:45.424Z,90.40
2022-08-29T04:55:13.199Z,90.40
2022-08-29T04:57:40.592Z,90.40
2022-08-29T05:00:12.905Z,90.30
2022-08-29T05:02:40.801Z,90.30
2022-08-29T05:05:09.477Z,90.30
2022-08-29T05:07:38.203Z,90.20
2022-08-29T05:10:09.358Z,90.30
2022-08-29T05:12:37.394Z,90.10
2022-08-29T05:15:06.579Z,90.10
2022-08-29T05:17:34.274Z,90.20
2022-08-29T05:20:01.337Z,90.20
2022-08-29T05:22:28.229Z,90.20
2022-08-29T05:24:57.023Z,90.20
2022-08-29T05:27:24.177Z,90.20
2022-08-29T05:29:51.896Z,90.10
2022-08-29T05:32:19.636Z,90.10
2022-08-29T05:34:49.215Z,90.20
2022-08-29T05:37:19.567Z,90.10
2022-08-29T05:39:48.216Z,90.10
2022-08-29T05:42:17.136Z,90.00
2022-08-29T05:44:44.282Z,90.00
2022-08-29T05:47:13.664Z,89.90
2022-08-29T05:49:42.181Z,89.90
2022-08-29T05:52:09.332Z,90.10
2022-08-29T05:54:38.473Z,90.10
2022-08-29T05:57:06.565Z,90.10
2022-08-29T05:59:33.705Z,90.00
2022-08-29T06:02:01.367Z,89.90
2022-08-29T06:04:28.190Z,90.00
2022-08-29T06:06:54.983Z,89.80
2022-08-29T06:09:21.787Z,89.90
2022-08-29T06:11:50.993Z,89.90
2022-08-29T06:14:18.103Z,89.70
2022-08-29T06:16:45.192Z,89.60
2022-08-29T06:19:12.622Z,89.50
2022-08-29T06:21:39.640Z,89.60
2022-08-29T06:24:06.752Z,89.70
2022-08-29T06:26:34.351Z,89.50
2022-08-29T06:29:04.078Z,89.70
2022-08-29T06:31:31.188Z,89.50
2022-08-29T06:34:00.065Z,89.50
2022-08-29T06:36:28.785Z,89.40
2022-08-29T06:38:58.040Z,89.50
2022-08-29T06:41:25.536Z,89.50
2022-08-29T06:43:52.814Z,89.60
2022-08-29T06:46:32.897Z,89.50
2022-08-29T06:49:01.307Z,89.20
2022-08-29T06:51:32.868Z,89.10
2022-08-29T06:54:01.378Z,88.90
2022-08-29T06:56:29.611Z,88.90
2022-08-29T06:58:57.194Z,89.00
2022-08-29T07:01:24.459Z,89.20
2022-08-29T07:03:54.991Z,89.10
2022-08-29T07:06:22.079Z,89.00
2022-08-29T07:08:55.294Z,88.90
2022-08-29T07:11:24.899Z,88.80
2022-08-29T07:13:51.761Z,88.90
2022-08-29T07:16:19.180Z,88.80
2022-08-29T07:18:46.827Z,88.90
2022-08-29T07:21:20.302Z,89.10
2022-08-29T07:23:48.815Z,89.40
2022-08-29T07:26:36.320Z,89.30
2022-08-29T07:29:13.508Z,89.40
2022-08-29T07:31:40.584Z,89.10
2022-08-29T07:34:08.092Z,88.90
2022-08-29T07:36:35.557Z,89.20
2022-08-29T07:39:05.646Z,88.40
2022-08-29T07:41:32.605Z,88.20
2022-08-29T07:43:59.385Z,88.10
2022-08-29T07:46:27.029Z,87.70
2022-08-29T07:48:54.357Z,87.60
2022-08-29T07:51:23.066Z,87.60
2022-08-29T07:53:50.917Z,87.30
2022-08-29T07:56:27.930Z,87.30
2022-08-29T07:58:56.515Z,87.60
2022-08-29T08:01:24.865Z,87.80
2022-08-29T08:03:53.002Z,87.60
2022-08-29T08:06:22.363Z,87.50
2022-08-29T08:08:49.919Z,87.70
2022-08-29T08:11:17.692Z,87.10
2022-08-29T08:13:44.738Z,86.90
2022-08-29T08:16:14.148Z,86.40
2022-08-29T08:18:42.763Z,86.30
2022-08-29T08:21:10.529Z,86.30
2022-08-29T08:23:38.350Z,86.20
2022-08-29T08:26:05.879Z,85.90
2022-08-29T08:28:32.767Z,85.80
2022-08-29T08:31:05.634Z,85.70
2022-08-29T08:33:35.430Z,85.50
2022-08-29T08:36:03.867Z,85.70
2022-08-29T08:38:31.663Z,85.70
2022-08-29T08:41:23.917Z,85.80
2022-08-29T08:43:56.294Z,85.70
2022-08-29T08:46:38.982Z,86.00
2022-08-29T08:49:31.797Z,86.40
2022-08-29T08:52:06.032Z,86.00
2022-08-29T08:54:41.226Z,85.80
2022-08-29T08:57:11.545Z,85.80
2022-08-29T08:59:44.183Z,85.90
2022-08-29T09:02:29.265Z,85.80
2022-08-29T09:05:18.668Z,86.00
2022-08-29T09:08:13.689Z,86.00
2022-08-29T09:10:43.643Z,86.40
2022-08-29T09:13:28.983Z,86.50
2022-08-29T09:16:00.146Z,86.40
2022-08-29T09:18:32.697Z,86.10
2022-08-29T09:21:10.083Z,85.80
2022-08-29T09:23:57.686Z,85.70
2022-08-29T09:26:24.760Z,85.70
2022-08-29T09:28:51.552Z,85.70
2022-08-29T09:31:20.094Z,85.10
2022-08-29T09:33:52.277Z,85.00
2022-08-29T09:36:46.049Z,84.70
2022-08-29T09:39:31.218Z,84.90
2022-08-29T09:42:13.734Z,84.70
2022-08-29T09:44:41.636Z,84.50
2022-08-29T09:47:19.446Z,84.40
2022-08-29T09:50:06.462Z,83.70
2022-08-29T09:52:34.021Z,83.40
2022-08-29T09:55:21.300Z,83.70
2022-08-29T09:57:54.214Z,83.80
2022-08-29T10:00:27.626Z,83.70
2022-08-29T10:02:58.499Z,83.60
2022-08-29T10:05:46.041Z,83.50
2022-08-29T10:08:25.241Z,83.00
2022-08-29T10:10:56.685Z,82.10
2022-08-29T10:13:47.228Z,82.20
2022-08-29T10:16:43.503Z,82.30
2022-08-29T10:19:19.026Z,82.10
2022-08-29T10:22:26.908Z,82.00
2022-08-29T10:25:03.056Z,81.80
2022-08-29T10:27:29.794Z,81.50
2022-08-29T10:30:17.484Z,81.90
2022-08-29T10:32:55.989Z,81.60
2022-08-29T10:35:55.397Z,81.80
2022-08-29T10:38:40.224Z,81.80
2022-08-29T10:41:17.858Z,81.30
2022-08-29T10:43:47.647Z,80.00
2022-08-29T10:46:51.323Z,79.00
2022-08-29T10:49:26.660Z,79.40
2022-08-29T10:52:05.953Z,78.50
2022-08-29T10:54:35.767Z,79.20
2022-08-29T10:57:04.711Z,77.80
2022-08-29T11:00:02.586Z,78.10
2022-08-29T11:02:58.615Z,79.10
2022-08-29T11:05:29.306Z,79.40
2022-08-29T11:08:09.678Z,78.90
2022-08-29T11:10:43.289Z,77.30
2022-08-29T11:13:35.039Z,75.20
2022-08-29T11:16:25.599Z,75.90
2022-08-29T11:19:21.619Z,76.30
2022-08-29T11:22:24.868Z,75.70
2022-08-29T11:25:14.490Z,74.90
2022-08-29T11:28:19.760Z,74.60
2022-08-29T11:30:58.555Z,75.00
2022-08-29T11:33:28.423Z,74.20
2022-08-29T11:36:25.945Z,75.90
2022-08-29T11:39:10.739Z,75.90
2022-08-29T11:41:42.103Z,74.40
2022-08-29T11:44:29.363Z,74.80
2022-08-29T11:46:57.586Z,74.00
2022-08-29T11:49:26.570Z,71.10
2022-08-29T11:52:01.125Z,70.80
2022-08-29T11:54:47.471Z,71.20
2022-08-29T11:57:14.208Z,71.50
2022-08-29T11:59:49.915Z,71.70
2022-08-29T12:02:31.691Z,71.40
2022-08-29T12:05:29.220Z,72.20
2022-08-29T12:08:14.464Z,72.20
2022-08-29T12:10:54.080Z,73.30
2022-08-29T12:13:49.092Z,73.80
2022-08-29T12:16:19.099Z,73.20
2022-08-29T12:18:54.564Z,73.60
2022-08-29T12:21:36.653Z,73.60
2022-08-29T12:24:04.876Z,72.80
2022-08-29T12:26:39.816Z,72.60
2022-08-29T12:29:10.382Z,72.40
2022-08-29T12:32:17.906Z,72.50
2022-08-29T12:35:06.482Z,72.80
2022-08-29T12:37:46.390Z,72.50
2022-08-29T12:40:47.667Z,73.20
2022-08-29T12:43:43.838Z,72.80
2022-08-29T12:46:40.408Z,71.70
2022-08-29T12:49:30.041Z,72.50
2022-08-29T12:52:01.835Z,71.70
2022-08-29T12:54:34.704Z,72.40
2022-08-29T12:57:02.768Z,71.50
2022-08-29T12:59:29.989Z,71.20
2022-08-29T13:01:58.661Z,70.90
2022-08-29T13:04:31.970Z,70.90
2022-08-29T13:07:03.261Z,70.70
2022-08-29T13:09:39.036Z,69.90
2022-08-29T13:12:28.831Z,70.10
2022-08-29T13:15:06.173Z,68.70
2022-08-29T13:17:41.339Z,69.20
2022-08-29T13:20:42.995Z,69.30
2022-08-29T13:23:13.030Z,68.60
2022-08-29T13:25:52.984Z,69.20
2022-08-29T13:28:21.431Z,67.90
2022-08-29T13:31:26.563Z,69.10
2022-08-29T13:33:56.398Z,68.50
2022-08-29T13:36:32.823Z,68.60
2022-08-29T13:39:18.099Z,68.70
2022-08-29T13:41:51.100Z,68.50
2022-08-29T13:44:27.834Z,68.80
2022-08-29T13:46:59.437Z,69.00
2022-08-29T13:49:29.701Z,68.30
2022-08-29T13:51:56.828Z,68.60
2022-08-29T13:54:24.190Z,68.30
2022-08-29T13:56:54.940Z,67.70
2022-08-29T13:59:25.879Z,68.30
2022-08-29T14:02:10.666Z,68.90
2022-08-29T14:04:40.351Z,66.70
2022-08-29T14:07:11.512Z,67.00
2022-08-29T14:09:42.455Z,66.70
2022-08-29T14:12:10.263Z,65.80
2022-08-29T14:14:37.075Z,64.80
2022-08-29T14:17:04.698Z,65.00
2022-08-29T14:19:31.649Z,64.50
2022-08-29T14:22:02.301Z,64.70
2022-08-29T14:24:32.071Z,64.80
2022-08-29T14:27:01.265Z,64.20
2022-08-29T14:29:30.809Z,63.80
2022-08-29T14:31:58.509Z,64.20
2022-08-29T14:34:30.580Z,64.00
2022-08-29T14:36:57.715Z,64.00
2022-08-29T14:39:26.352Z,63.50
2022-08-29T14:41:53.823Z,62.70
2022-08-29T14:44:22.272Z,62.10
2022-08-29T14:46:50.184Z,61.70
2022-08-29T14:49:17.326Z,61.50
2022-08-29T14:51:46.871Z,61.60
2022-08-29T14:54:13.806Z,61.90
2022-08-29T14:56:48.572Z,62.40
2022-08-29T14:59:16.671Z,62.30
2022-08-29T15:01:43.542Z,62.80
2022-08-29T15:04:11.199Z,62.80
2022-08-29T15:06:38.726Z,63.00
2022-08-29T15:09:05.660Z,63.20
2022-08-29T15:11:32.882Z,63.40
2022-08-29T15:14:04.450Z,63.20
2022-08-29T15:16:32.574Z,63.30
2022-08-29T15:19:53.400Z,63.20
2022-08-29T15:21:46.469Z,63.20
2022-08-29T15:24:13.287Z,62.70
2022-08-29T15:26:40.220Z,62.70
2022-08-29T15:29:08.891Z,62.50
2022-08-29T15:31:35.777Z,62.40
2022-08-29T15:34:02.665Z,62.40
2022-08-29T15:36:29.701Z,62.40
2022-08-29T15:38:56.476Z,62.10
2022-08-29T15:41:23.292Z,61.90
2022-08-29T15:43:50.083Z,61.80
2022-08-29T15:46:16.947Z,62.50
2022-08-29T15:48:45.666Z,62.80
2022-08-29T15:51:12.475Z,63.20
2022-08-29T15:53:39.387Z,63.20
2022-08-29T15:56:06.487Z,63.50
2022-08-29T15:58:33.367Z,63.60
2022-08-29T16:01:00.216Z,63.60
2022-08-29T16:03:27.299Z,63.60
2022-08-29T16:05:54.120Z,63.40
2022-08-29T16:08:20.968Z,63.40
2022-08-29T16:10:56.306Z,63.70
2022-08-29T16:13:23.155Z,63.40
2022-08-29T16:15:50.204Z,63.50
2022-08-29T16:18:17.286Z,63.50
2022-08-29T16:20:44.419Z,63.30
2022-08-29T16:23:11.664Z,62.80
2022-08-29T16:25:39.621Z,62.90
2022-08-29T16:28:06.555Z,62.50
2022-08-29T16:30:33.629Z,62.30
2022-08-29T16:33:00.528Z,62.50
2022-08-29T16:35:27.507Z,62.20
2022-08-29T16:38:02.558Z,62.20
2022-08-29T16:40:30.378Z,62.20
2022-08-29T16:42:57.237Z,62.30
2022-08-29T16:45:24.541Z,62.40
2022-08-29T16:47:55.308Z,62.50
2022-08-29T16:50:24.679Z,62.40
2022-08-29T16:52:51.660Z,62.50
2022-08-29T16:55:18.598Z,62.70
2022-08-29T16:58:05.341Z,62.80
2022-08-29T17:00:32.359Z,62.60
2022-08-29T17:02:59.567Z,62.80
2022-08-29T17:05:26.990Z,63.00
2022-08-29T17:07:53.880Z,63.10
2022-08-29T17:10:20.776Z,63.40
2022-08-29T17:12:48.108Z,63.60
2022-08-29T17:15:14.908Z,64.10
2022-08-29T17:17:41.785Z,64.20
2022-08-29T17:20:10.810Z,64.30
2022-08-29T17:22:37.829Z,64.00
2022-08-29T17:25:05.310Z,64.30
2022-08-29T17:27:32.106Z,64.40
2022-08-29T17:29:58.952Z,65.00
2022-08-29T17:32:25.732Z,65.60
2022-08-29T17:34:52.633Z,66.10
2022-08-29T17:37:19.413Z,66.70
2022-08-29T17:39:46.207Z,67.30
2022-08-29T17:42:14.234Z,68.40
2022-08-29T17:44:41.161Z,69.60
2022-08-29T17:47:07.928Z,70.80
2022-08-29T17:49:34.811Z,72.00
2022-08-29T17:52:01.730Z,73.60
2022-08-29T17:54:28.517Z,74.90
2022-08-29T17:57:00.657Z,76.20
2022-08-29T17:59:30.791Z,77.20
2022-08-29T18:01:58.835Z,78.30
2022-08-29T18:04:26.918Z,78.80
2022-08-29T18:06:57.177Z,79.30
2022-08-29T18:09:25.057Z,79.90
2022-08-29T18:11:53.400Z,80.50
2022-08-29T18:14:23.651Z,81.00
2022-08-29T18:16:51.817Z,81.30
2022-08-29T18:19:19.286Z,81.60
2022-08-29T18:21:46.592Z,81.80
2022-08-29T18:24:15.002Z,82.20
2022-08-29T18:26:43.476Z,82.60
2022-08-29T18:29:10.990Z,82.90
2022-08-29T18:31:37.900Z,83.20
2022-08-29T18:34:05.941Z,83.50
2022-08-29T18:36:35.708Z,83.90
2022-08-29T18:39:05.099Z,84.10
2022-08-29T18:41:32.177Z,84.40
2022-08-29T18:43:59.028Z,84.70
2022-08-29T18:46:26.751Z,85.00
2022-08-29T18:48:53.760Z,85.40
2022-08-29T18:51:21.126Z,85.60
2022-08-29T18:53:48.144Z,85.80
2022-08-29T18:56:15.300Z,86.00
2022-08-29T18:58:44.289Z,86.50
2022-08-29T19:01:26.939Z,86.60
2022-08-29T19:03:56.993Z,87.10
2022-08-29T19:06:25.896Z,87.20
2022-08-29T19:08:54.351Z,87.40
2022-08-29T19:11:22.635Z,87.60
2022-08-29T19:13:52.463Z,87.70
2022-08-29T19:16:21.493Z,87.90
2022-08-29T19:18:48.841Z,88.10
2022-08-29T19:21:15.898Z,88.40
2022-08-29T19:23:46.009Z,88.40
2022-08-29T19:26:20.927Z,88.70
2022-08-29T19:28:48.129Z,88.80
2022-08-29T19:31:17.223Z,89.00
2022-08-29T19:33:45.016Z,89.20
2022-08-29T19:36:11.992Z,89.50
2022-08-29T19:38:41.549Z,89.50
2022-08-29T19:41:08.554Z,89.90
2022-08-29T19:43:37.132Z,89.90
2022-08-29T19:46:11.526Z,90.00
2022-08-29T19:48:43.653Z,90.20
2022-08-29T19:51:12.857Z,90.20
2022-08-29T19:53:41.484Z,90.30
2022-08-29T19:56:09.526Z,90.40
2022-08-29T19:58:37.719Z,90.50
2022-08-29T20:01:07.697Z,90.50
2022-08-29T20:03:38.086Z,90.70
2022-08-29T20:06:06.984Z,90.70
2022-08-29T20:08:41.512Z,90.90
2022-08-29T20:11:13.857Z,91.10
2022-08-29T20:13:47.606Z,91.10
2022-08-29T20:16:19.801Z,91.10
2022-08-29T20:18:48.459Z,91.20
2022-08-29T20:21:19.266Z,91.30
2022-08-29T20:23:49.641Z,91.40
2022-08-29T20:26:21.231Z,91.50
2022-08-29T20:28:51.753Z,91.50
2022-08-29T20:31:20.167Z,91.60
2022-08-29T20:33:48.733Z,91.60
2022-08-29T20:36:38.528Z,91.60
2022-08-29T20:39:07.187Z,91.60
2022-08-29T20:41:34.401Z,91.70
2022-08-29T20:44:06.925Z,91.70
2022-08-29T20:46:39.475Z,91.70
2022-08-29T20:49:07.457Z,91.80
2022-08-29T20:51:35.976Z,91.90
2022-08-29T20:54:02.918Z,91.90
2022-08-29T20:56:30.133Z,92.00
2022-08-29T20:58:57.158Z,92.10
2022-08-29T21:01:24.402Z,92.10
2022-08-29T21:04:09.873Z,92.30
2022-08-29T21:06:37.288Z,92.30
2022-08-29T21:09:05.767Z,92.30
2022-08-29T21:11:33.300Z,92.40
2022-08-29T21:14:00.540Z,92.60
2022-08-29T21:16:28.599Z,92.60
2022-08-29T21:18:55.826Z,92.80
2022-08-29T21:21:24.851Z,92.90
2022-08-29T21:23:52.179Z,93.10
2022-08-29T21:26:19.022Z,93.00
2022-08-29T21:28:47.238Z,93.20
2022-08-29T21:31:15.543Z,93.30
2022-08-29T21:33:45.384Z,93.40
2022-08-29T21:36:21.432Z,93.40
2022-08-29T21:38:54.003Z,93.50
2022-08-29T21:41:23.784Z,93.60
2022-08-29T21:43:51.598Z,93.60
2022-08-29T21:46:28.638Z,93.70
2022-08-29T21:48:58.352Z,93.70
2022-08-29T21:51:25.800Z,93.80
2022-08-29T21:53:55.684Z,93.90
2022-08-29T21:56:23.655Z,94.00
2022-08-29T21:58:53.936Z,94.10
2022-08-29T22:01:23.773Z,94.20
2022-08-29T22:03:50.857Z,94.40
2022-08-29T22:06:18.282Z,94.50
2022-08-29T22:08:46.319Z,94.60
2022-08-29T22:11:22.582Z,94.70
2022-08-29T22:13:50.579Z,94.80
2022-08-29T22:16:29.847Z,94.90
2022-08-29T22:19:01.529Z,95.20
2022-08-29T22:21:33.076Z,95.20
2022-08-29T22:24:00.675Z,95.20
2022-08-29T22:26:27.633Z,95.30
2022-08-29T22:28:54.519Z,95.30
2022-08-29T22:31:22.099Z,95.30
2022-08-29T22:33:49.526Z,95.50
2022-08-29T22:36:17.140Z,95.80
2022-08-29T22:38:45.769Z,96.10
2022-08-29T22:41:23.828Z,96.20
2022-08-29T22:44:11.409Z,96.30
2022-08-29T22:46:42.924Z,96.50
2022-08-29T22:49:09.745Z,96.60
2022-08-29T22:51:36.819Z,96.70
2022-08-29T22:54:22.579Z,97.00
2022-08-29T22:56:49.375Z,97.20
2022-08-29T22:59:17.265Z,97.50
2022-08-29T23:01:44.728Z,97.50
2022-08-29T23:04:12.291Z,97.70
2022-08-29T23:06:40.195Z,98.10
2022-08-29T23:09:07.192Z,98.60
2022-08-29T23:11:34.212Z,98.80
2022-08-29T23:14:01.132Z,98.70
2022-08-29T23:16:29.380Z,98.90
2022-08-29T23:18:56.191Z,99.00
2022-08-29T23:21:23.096Z,99.10
2022-08-29T23:23:51.385Z,99.20
2022-08-29T23:26:19.714Z,99.30
2022-08-29T23:28:46.542Z,99.50
2022-08-29T23:31:15.340Z,99.80
2022-08-29T23:33:42.495Z,99.90
2022-08-29T23:36:10.131Z,99.90
2022-08-29T23:38:38.069Z,99.90
2022-08-29T23:41:05.120Z,99.90
2022-08-29T23:43:36.703Z,99.90
2022-08-29T23:46:04.823Z,99.90
2022-08-29T23:48:31.953Z,99.90
2022-08-29T23:50:58.931Z,99.90
2022-08-29T23:53:26.035Z,99.90
2022-08-29T23:55:53.399Z,99.90
2022-08-29T23:58:20.293Z,99.90
